createdAt,value
2022-12-07T00:01:17.676Z,52.60
2022-12-07T00:06:15.445Z,45.93
2022-12-07T00:11:20.509Z,54.28
2022-12-07T00:16:19.672Z,61.30
2022-12-07T00:21:25.409Z,64.20
2022-12-07T00:26:24.491Z,66.00
2022-12-07T00:31:27.346Z,59.15
2022-12-07T00:36:27.216Z,59.03
2022-12-07T00:41:26.156Z,65.32
2022-12-07T00:46:23.403Z,65.18
2022-12-07T00:51:22.378Z,65.47
2022-12-07T00:56:25.249Z,62.88
2022-12-07T01:01:21.736Z,57.28
2022-12-07T01:06:20.547Z,58.10
2022-12-07T01:11:19.909Z,64.28
2022-12-07T01:16:17.519Z,54.10
2022-12-07T01:21:22.936Z,56.50
2022-12-07T01:26:23.471Z,48.58
2022-12-07T01:31:22.524Z,50.13
2022-12-07T01:36:20.212Z,54.33
2022-12-07T01:41:17.186Z,46.55
2022-12-07T01:46:13.543Z,46.15
2022-12-07T01:51:14.530Z,47.55
2022-12-07T01:56:16.712Z,38.17
2022-12-07T02:01:13.186Z,40.92
2022-12-07T02:06:13.057Z,44.33
2022-12-07T02:11:10.286Z,44.90
2022-12-07T02:16:34.301Z,41.05
2022-12-07T02:21:55.893Z,41.05
2022-12-07T02:27:10.398Z,36.25
2022-12-07T02:32:17.878Z,32.42
2022-12-07T02:37:32.424Z,34.08
2022-12-07T02:42:37.315Z,30.23
2022-12-07T02:47:35.193Z,24.27
2022-12-07T02:52:31.711Z,25.27
2022-12-07T02:58:03.130Z,21.20
2022-12-07T03:03:11.577Z,29.13
2022-12-07T03:08:17.781Z,21.77
2022-12-07T03:13:29.333Z,25.08
2022-12-07T03:18:28.697Z,23.00
2022-12-07T03:23:27.085Z,22.98
2022-12-07T03:28:27.966Z,22.92
2022-12-07T03:33:32.293Z,19.42
2022-12-07T03:38:43.402Z,16.58
2022-12-07T03:43:41.946Z,19.90
2022-12-07T03:48:47.132Z,16.67
2022-12-07T03:53:53.496Z,22.40
2022-12-07T03:58:50.178Z,19.35
2022-12-07T04:03:46.681Z,19.83
2022-12-07T04:08:43.046Z,21.40
2022-12-07T04:13:58.051Z,20.27
2022-12-07T04:18:54.379Z,18.98
2022-12-07T04:23:50.705Z,16.75
2022-12-07T04:28:47.010Z,20.15
2022-12-07T04:33:43.349Z,15.50
2022-12-07T04:38:39.718Z,18.48
2022-12-07T04:43:36.964Z,21.88
2022-12-07T04:48:33.344Z,22.60
2022-12-07T04:53:29.814Z,18.13
2022-12-07T04:58:26.137Z,23.60
2022-12-07T05:03:22.482Z,21.92
2022-12-07T05:08:18.888Z,16.65
2022-12-07T05:13:15.343Z,20.23
2022-12-07T05:18:13.439Z,23.85
2022-12-07T05:23:09.817Z,20.63
2022-12-07T05:28:07.042Z,20.90
2022-12-07T05:33:03.833Z,22.80
2022-12-07T05:38:00.314Z,20.02
2022-12-07T05:43:01.239Z,27.40
2022-12-07T05:48:00.565Z,21.75
2022-12-07T05:52:56.928Z,22.30
2022-12-07T05:58:22.510Z,21.35
2022-12-07T06:03:19.021Z,22.83
2022-12-07T06:08:16.466Z,21.05
2022-12-07T06:13:12.904Z,21.27
2022-12-07T06:18:09.336Z,28.65
2022-12-07T06:23:05.718Z,22.90
2022-12-07T06:28:02.067Z,23.75
2022-12-07T06:32:58.431Z,20.15
2022-12-07T06:37:54.823Z,19.42
2022-12-07T06:42:51.355Z,23.00
2022-12-07T06:47:47.787Z,28.13
2022-12-07T06:52:44.364Z,23.83
2022-12-07T06:57:40.983Z,23.95
2022-12-07T07:02:37.600Z,23.83
2022-12-07T07:07:51.892Z,20.65
2022-12-07T07:12:55.671Z,31.55
2022-12-07T07:17:53.694Z,23.75
2022-12-07T07:22:50.383Z,26.27
2022-12-07T07:27:47.213Z,19.42
2022-12-07T07:32:43.604Z,23.08
2022-12-07T07:37:39.996Z,20.17
2022-12-07T07:42:36.512Z,23.58
2022-12-07T07:47:32.914Z,20.42
2022-12-07T07:52:29.269Z,19.25
2022-12-07T07:57:25.671Z,21.80
2022-12-07T08:02:22.918Z,26.20
2022-12-07T08:07:19.294Z,22.05
2022-12-07T08:12:15.746Z,27.75
2022-12-07T08:17:12.117Z,23.90
2022-12-07T08:22:08.511Z,16.75
2022-12-07T08:27:04.957Z,19.10
2022-12-07T08:32:06.589Z,18.98
2022-12-07T08:37:05.709Z,19.05
2022-12-07T08:42:02.062Z,19.33
2022-12-07T08:47:02.522Z,21.73
2022-12-07T08:51:58.902Z,19.73
2022-12-07T08:56:59.545Z,19.15
2022-12-07T09:01:56.665Z,18.88
2022-12-07T09:06:54.701Z,13.65
2022-12-07T09:11:51.279Z,25.43
2022-12-07T09:16:47.803Z,13.02
2022-12-07T09:21:44.246Z,14.60
2022-12-07T09:26:41.397Z,15.13
2022-12-07T09:31:38.748Z,16.05
2022-12-07T09:36:35.586Z,22.58
2022-12-07T09:41:33.224Z,12.27
2022-12-07T09:46:35.945Z,23.17
2022-12-07T09:51:32.983Z,19.35
2022-12-07T09:56:34.257Z,14.98
2022-12-07T10:01:34.146Z,16.08
2022-12-07T10:06:30.585Z,10.23
2022-12-07T10:11:27.085Z,13.95
2022-12-07T10:16:44.770Z,16.90
2022-12-07T10:22:01.086Z,17.20
2022-12-07T10:26:58.022Z,10.02
2022-12-07T10:31:58.924Z,7.20
2022-12-07T10:37:10.090Z,6.93
2022-12-07T10:42:07.010Z,12.95
2022-12-07T10:47:25.974Z,8.85
2022-12-07T10:53:02.653Z,19.23
2022-12-07T10:58:11.316Z,7.65
2022-12-07T11:03:24.081Z,10.35
2022-12-07T11:08:47.775Z,17.95
2022-12-07T11:13:48.566Z,7.88
2022-12-07T11:18:53.690Z,14.23
2022-12-07T11:24:04.851Z,6.15
2022-12-07T11:29:38.187Z,6.75
2022-12-07T11:34:37.445Z,4.80
2022-12-07T11:39:37.931Z,5.43
2022-12-07T11:45:00.815Z,6.03
2022-12-07T11:50:31.260Z,4.45
2022-12-07T11:55:35.766Z,2.67
2022-12-07T12:00:33.726Z,11.73
2022-12-07T12:05:31.179Z,4.93
2022-12-07T12:10:50.707Z,8.25
2022-12-07T12:16:01.351Z,6.93
2022-12-07T12:21:05.113Z,7.63
2022-12-07T12:26:05.924Z,5.15
2022-12-07T12:31:10.173Z,4.07
2022-12-07T12:36:26.541Z,2.13
2022-12-07T12:41:39.165Z,2.42
2022-12-07T12:46:49.652Z,1.88
2022-12-07T12:51:50.316Z,7.35
2022-12-07T12:57:08.365Z,6.65
2022-12-07T13:02:24.092Z,6.73
2022-12-07T13:07:59.564Z,2.35
2022-12-07T13:13:03.491Z,4.18
2022-12-07T13:18:03.308Z,3.50
2022-12-07T13:23:00.325Z,5.28
2022-12-07T13:28:04.071Z,11.00
2022-12-07T13:33:01.022Z,8.35
2022-12-07T13:37:57.465Z,8.73
2022-12-07T13:43:02.266Z,8.30
2022-12-07T13:48:00.183Z,4.72
2022-12-07T13:52:58.881Z,9.23
2022-12-07T13:57:56.554Z,6.22
2022-12-07T14:03:00.359Z,3.55
2022-12-07T14:08:23.548Z,3.83
2022-12-07T14:13:36.313Z,9.30
2022-12-07T14:18:41.293Z,2.08
2022-12-07T14:23:39.675Z,9.07
2022-12-07T14:28:38.027Z,8.98
2022-12-07T14:33:34.593Z,11.18
2022-12-07T14:38:30.946Z,6.72
2022-12-07T14:43:27.306Z,3.55
2022-12-07T14:53:56.885Z,4.75
2022-12-07T14:58:54.355Z,6.50
2022-12-07T15:03:51.139Z,5.45
2022-12-07T15:08:47.910Z,5.93
2022-12-07T15:14:02.859Z,3.10
2022-12-07T15:19:26.734Z,6.63
2022-12-07T15:24:15.672Z,6.00
2022-12-07T15:29:12.537Z,9.77
2022-12-07T15:34:08.883Z,9.20
2022-12-07T15:39:14.204Z,9.30
2022-12-07T15:44:32.312Z,9.02
2022-12-07T15:49:29.181Z,7.85
2022-12-07T15:54:28.472Z,11.65
2022-12-07T15:59:26.584Z,10.13
2022-12-07T16:04:23.174Z,8.07
2022-12-07T16:09:19.798Z,4.55
2022-12-07T16:14:16.316Z,9.07
2022-12-07T16:19:12.727Z,8.43
2022-12-07T16:24:11.064Z,6.20
2022-12-07T16:29:07.546Z,7.45
2022-12-07T16:34:04.084Z,12.30
2022-12-07T16:39:01.295Z,8.20
2022-12-07T16:43:58.146Z,6.53
2022-12-07T16:48:54.536Z,7.82
2022-12-07T16:53:53.533Z,11.50
2022-12-07T16:58:50.730Z,4.63
2022-12-07T17:03:47.764Z,10.18
2022-12-07T17:08:44.443Z,9.25
2022-12-07T17:14:00.310Z,6.72
2022-12-07T17:18:57.297Z,8.45
2022-12-07T17:23:53.717Z,7.85
2022-12-07T17:28:51.158Z,9.85
2022-12-07T17:33:48.071Z,6.32
2022-12-07T17:38:45.116Z,12.18
2022-12-07T17:43:41.461Z,5.97
2022-12-07T17:48:37.829Z,11.40
2022-12-07T17:53:34.173Z,10.25
2022-12-07T17:58:30.558Z,11.23
2022-12-07T18:03:26.941Z,8.38
2022-12-07T18:08:23.402Z,11.38
2022-12-07T18:13:38.185Z,7.28
2022-12-07T18:18:35.121Z,8.85
2022-12-07T18:23:33.416Z,13.98
2022-12-07T18:28:31.071Z,13.68
2022-12-07T18:33:27.456Z,14.52
2022-12-07T18:38:23.944Z,4.90
2022-12-07T18:43:20.552Z,7.63
2022-12-07T18:48:19.054Z,20.52
2022-12-07T18:53:15.921Z,11.02
2022-12-07T18:58:12.281Z,16.30
2022-12-07T19:03:08.705Z,10.30
2022-12-07T19:08:05.151Z,10.98
2022-12-07T19:13:02.343Z,12.75
2022-12-07T19:17:58.763Z,13.07
2022-12-07T19:22:55.944Z,12.50
2022-12-07T19:27:52.405Z,22.10
2022-12-07T19:32:48.757Z,20.42
2022-12-07T19:37:45.165Z,12.88
2022-12-07T19:42:41.580Z,18.15
2022-12-07T19:47:37.969Z,12.75
2022-12-07T19:52:36.870Z,25.38
2022-12-07T19:57:33.475Z,24.42
2022-12-07T20:02:29.922Z,18.10
2022-12-07T20:07:26.304Z,22.50
2022-12-07T20:12:41.206Z,17.48
2022-12-07T20:17:37.580Z,28.05
2022-12-07T20:22:33.948Z,19.00
2022-12-07T20:27:30.303Z,21.77
2022-12-07T20:32:26.676Z,18.90
2022-12-07T20:37:23.113Z,23.17
2022-12-07T20:42:37.720Z,17.98
2022-12-07T20:47:34.863Z,24.80
2022-12-07T20:52:31.351Z,18.65
2022-12-07T20:57:27.706Z,19.90
2022-12-07T21:02:24.485Z,23.38
2022-12-07T21:07:20.959Z,19.30
2022-12-07T21:12:17.324Z,24.27
2022-12-07T21:17:13.700Z,19.55
2022-12-07T21:22:10.067Z,20.50
2022-12-07T21:27:06.766Z,21.70
2022-12-07T21:32:03.603Z,19.52
2022-12-07T21:37:00.042Z,21.05
2022-12-07T21:41:56.437Z,18.55
2022-12-07T21:46:53.006Z,19.65
2022-12-07T21:51:49.447Z,16.48
2022-12-07T21:56:45.813Z,20.98
2022-12-07T22:01:47.138Z,22.95
2022-12-07T22:06:45.442Z,19.17
2022-12-07T22:11:41.863Z,22.43
2022-12-07T22:16:39.406Z,26.77
2022-12-07T22:21:36.015Z,25.23
2022-12-07T22:26:32.740Z,18.20
2022-12-07T22:31:29.429Z,18.67
2022-12-07T22:36:26.211Z,24.50
2022-12-07T22:41:26.386Z,22.75
2022-12-07T22:46:24.055Z,21.08
2022-12-07T22:51:37.693Z,18.63
2022-12-07T22:56:36.386Z,25.80
2022-12-07T23:01:32.955Z,21.13
2022-12-07T23:06:32.431Z,21.45
2022-12-07T23:11:50.428Z,18.90
2022-12-07T23:16:47.032Z,19.43
2022-12-07T23:21:43.838Z,23.23
2022-12-07T23:26:44.692Z,19.30
2022-12-07T23:31:41.220Z,23.67
2022-12-07T23:36:37.688Z,22.85
2022-12-07T23:41:34.209Z,25.52
2022-12-07T23:46:32.547Z,23.05
2022-12-07T23:51:29.357Z,21.90
2022-12-07T23:56:27.775Z,22.63
